Time;durP1;ratioP1;P1;durP2;ratioP2;P2;SDS_P1;SDS_P2;PMS_P1;PMS_P2;Temp;Humidity;BMP_temperature;BMP_pressure;BME280_temperature;BME280_humidity;BME280_pressure;Samples;Min_cycle;Max_cycle;Signal;HPM_P1;HPM_P2
2022/09/23 00:00:36;;;;;;;16.35;14.48;;;8.60;1.00;;;;;;5055518;28;20056;-24
2022/09/23 00:03:02;;;;;;;17.85;15.20;;;8.60;1.00;;;;;;5074071;28;20236;-24
2022/09/23 00:05:29;;;;;;;19.48;15.20;;;8.60;1.00;;;;;;5075064;28;20421;-23
2022/09/23 00:07:55;;;;;;;15.98;14.30;;;8.60;1.00;;;;;;5077449;28;20518;-23
2022/09/23 00:10:23;;;;;;;18.05;13.93;;;8.60;1.00;;;;;;5077690;28;20046;-23
2022/09/23 00:12:48;;;;;;;21.33;14.98;;;8.50;1.00;;;;;;5077847;28;20049;-24
2022/09/23 00:15:15;;;;;;;22.98;15.70;;;8.60;1.00;;;;;;5077334;28;20102;-24
2022/09/23 00:17:41;;;;;;;20.27;16.95;;;8.50;13.10;;;;;;5077166;28;20052;-24
2022/09/23 00:20:10;;;;;;;16.88;14.98;;;8.50;20.60;;;;;;5077242;28;20048;-24
2022/09/23 00:22:36;;;;;;;17.25;15.43;;;8.50;90.70;;;;;;5060313;28;20040;-23
2022/09/23 00:25:03;;;;;;;18.08;15.00;;;8.40;86.90;;;;;;5077689;28;20053;-24
2022/09/23 00:27:29;;;;;;;19.38;17.13;;;8.50;96.00;;;;;;5076788;28;20513;-24
2022/09/23 00:29:56;;;;;;;18.20;16.25;;;8.50;88.40;;;;;;5077050;28;20052;-24
2022/09/23 00:32:21;;;;;;;23.50;17.55;;;8.50;99.90;;;;;;5076923;28;20065;-24
2022/09/23 00:34:47;;;;;;;17.48;15.80;;;8.50;99.90;;;;;;5076559;28;20055;-23
2022/09/23 00:37:13;;;;;;;19.60;17.20;;;8.40;99.90;;;;;;5076836;28;20036;-24
2022/09/23 00:39:39;;;;;;;19.67;17.58;;;8.40;99.90;;;;;;5076239;28;20036;-23
2022/09/23 00:42:11;;;;;;;22.48;18.95;;;8.40;99.90;;;;;;5075854;28;20045;-23
2022/09/23 00:44:43;;;;;;;20.15;16.60;;;8.50;99.90;;;;;;5076498;28;20525;-23
2022/09/23 00:47:19;;;;;;;23.85;18.75;;;8.40;99.90;;;;;;5076717;28;20131;-24
2022/09/23 00:49:50;;;;;;;21.05;17.88;;;8.50;99.90;;;;;;5075504;28;20063;-24
2022/09/23 00:52:19;;;;;;;19.88;16.67;;;8.50;99.90;;;;;;5076657;28;20533;-24
2022/09/23 00:54:46;;;;;;;19.40;16.02;;;8.60;99.90;;;;;;5077039;28;20131;-24
2022/09/23 00:57:16;;;;;;;19.00;16.92;;;8.50;99.90;;;;;;5076528;28;20048;-24
2022/09/23 00:59:42;;;;;;;22.08;17.13;;;8.60;99.90;;;;;;5076367;28;20045;-24
2022/09/23 01:02:12;;;;;;;18.50;16.38;;;8.60;99.90;;;;;;5076983;28;20051;-24
2022/09/23 01:04:38;;;;;;;21.08;16.80;;;8.70;99.90;;;;;;5076078;28;20498;-24
2022/09/23 01:07:04;;;;;;;19.23;16.65;;;8.70;99.90;;;;;;5076410;28;20056;-24
2022/09/23 01:09:30;;;;;;;19.92;17.08;;;8.60;99.90;;;;;;5076580;28;20045;-24
2022/09/23 01:12:14;;;;;;;19.27;17.10;;;8.70;99.90;;;;;;5076291;28;20486;-23
2022/09/23 01:15:07;;;;;;;24.13;17.67;;;8.70;99.90;;;;;;5077001;28;20066;-24
2022/09/23 01:17:33;;;;;;;20.75;16.55;;;8.60;99.90;;;;;;5075480;28;20049;-24
2022/09/23 01:20:17;;;;;;;19.50;17.40;;;8.70;99.90;;;;;;5076213;28;20066;-24
2022/09/23 01:22:52;;;;;;;20.42;17.33;;;8.60;99.90;;;;;;5076465;28;20088;-24
2022/09/23 01:25:17;;;;;;;20.45;17.92;;;8.60;99.90;;;;;;5074958;28;20128;-24
2022/09/23 01:27:49;;;;;;;23.35;18.00;;;8.60;87.70;;;;;;5074838;28;20080;-23
2022/09/23 01:30:39;;;;;;;20.13;17.77;;;8.60;99.90;;;;;;5075930;28;20056;-24
2022/09/23 01:33:17;;;;;;;22.60;19.05;;;8.60;99.90;;;;;;5075934;28;20062;-24
2022/09/23 01:35:46;;;;;;;22.98;19.98;;;8.60;99.90;;;;;;5076501;28;20059;-24
2022/09/23 01:38:15;;;;;;;22.75;18.10;;;8.60;99.90;;;;;;5075127;28;20063;-24
2022/09/23 01:40:49;;;;;;;27.30;20.38;;;8.60;99.90;;;;;;5075624;28;20044;-24
2022/09/23 01:43:23;;;;;;;22.25;18.42;;;8.60;99.90;;;;;;5074794;28;20433;-24
2022/09/23 01:45:53;;;;;;;;;;;8.60;99.90;;;;;;5076762;28;20045;-24
2022/09/23 01:48:28;;;;;;;21.60;18.00;;;8.70;99.90;;;;;;5074632;28;20350;-24
2022/09/23 01:51:01;;;;;;;24.40;18.13;;;8.70;99.90;;;;;;5075627;28;20070;-24
2022/09/23 01:53:45;;;;;;;22.42;17.83;;;8.70;99.90;;;;;;5076115;28;20101;-24
2022/09/23 01:56:19;;;;;;;21.00;17.50;;;8.70;99.90;;;;;;5075568;28;20471;-24
2022/09/23 01:58:55;;;;;;;20.25;17.05;;;8.80;99.90;;;;;;5076023;28;20063;-24
2022/09/23 02:01:30;;;;;;;23.77;17.58;;;8.70;99.90;;;;;;5075242;28;20041;-24
2022/09/23 02:04:10;;;;;;;19.80;17.33;;;8.70;99.90;;;;;;5075315;28;20482;-24
2022/09/23 02:06:42;;;;;;;19.27;16.38;;;8.80;99.90;;;;;;5076122;28;20131;-24
2022/09/23 02:09:13;;;;;;;21.50;16.20;;;8.80;99.90;;;;;;5075805;28;20048;-24
2022/09/23 02:11:42;;;;;;;21.00;17.15;;;8.70;99.90;;;;;;5074859;28;20479;-24
2022/09/23 02:14:30;;;;;;;20.27;17.05;;;8.70;99.90;;;;;;5074994;28;20043;-24
2022/09/23 02:17:01;;;;;;;19.60;17.40;;;8.70;99.90;;;;;;5074126;28;20139;-23
2022/09/23 02:19:40;;;;;;;22.73;16.58;;;8.50;98.40;;;;;;5075870;28;20443;-23
2022/09/23 02:22:11;;;;;;;22.92;18.58;;;8.50;99.80;;;;;;5074943;28;20059;-24
2022/09/23 02:24:38;;;;;;;23.73;17.70;;;8.40;67.70;;;;;;5074904;28;20483;-24
2022/09/23 02:27:46;;;;;;;26.27;17.67;;;8.40;78.20;;;;;;5073612;28;20048;-24
2022/09/23 02:30:20;;;;;;;22.50;18.38;;;8.20;99.90;;;;;;5074435;28;20052;-24
2022/09/23 02:33:06;;;;;;;23.10;17.08;;;8.10;99.90;;;;;;5073843;28;20060;-24
2022/09/23 02:35:47;;;;;;;24.27;17.70;;;8.10;99.90;;;;;;5075538;28;20053;-24
2022/09/23 02:38:34;;;;;;;23.15;17.60;;;8.10;99.90;;;;;;5074514;28;20055;-24
2022/09/23 02:41:14;;;;;;;20.80;16.20;;;8.00;99.90;;;;;;5073655;28;20087;-24
2022/09/23 02:44:03;;;;;;;24.52;18.40;;;8.00;99.90;;;;;;5074548;28;20047;-24
2022/09/23 02:46:29;;;;;;;25.48;18.90;;;8.00;99.90;;;;;;5075312;28;20067;-24
2022/09/23 02:49:19;;;;;;;29.67;19.13;;;8.00;99.90;;;;;;5074347;28;20487;-23
2022/09/23 02:51:45;;;;;;;28.02;18.40;;;8.00;99.90;;;;;;5073848;28;20055;-23
2022/09/23 02:54:15;;;;;;;27.05;21.20;;;8.00;99.90;;;;;;5074297;28;20089;-23
2022/09/23 02:56:41;;;;;;;24.10;18.30;;;8.00;99.90;;;;;;5074314;28;20090;-23
2022/09/23 02:59:08;;;;;;;21.52;18.48;;;7.90;99.90;;;;;;5073098;28;20048;-24
2022/09/23 03:01:38;;;;;;;27.35;19.42;;;7.90;99.90;;;;;;5074756;28;20383;-24
2022/09/23 03:04:24;;;;;;;24.63;19.45;;;7.90;99.90;;;;;;5073436;28;20056;-23
2022/09/23 03:07:31;;;;;;;24.98;19.35;;;8.00;99.90;;;;;;5073991;28;20106;-24
2022/09/23 03:10:18;;;;;;;24.70;19.52;;;7.90;99.90;;;;;;5074671;28;20048;-23
2022/09/23 03:13:15;;;;;;;24.38;19.20;;;7.80;99.90;;;;;;5073080;28;20498;-24
2022/09/23 03:16:13;;;;;;;25.08;18.48;;;7.80;99.90;;;;;;5074650;28;20093;-23
2022/09/23 03:18:43;;;;;;;23.63;18.52;;;7.90;99.90;;;;;;5074231;28;20047;-23
2022/09/23 03:21:19;;;;;;;24.38;19.48;;;7.80;99.90;;;;;;5073943;28;20051;-24
2022/09/23 03:23:46;;;;;;;28.75;20.67;;;7.80;99.90;;;;;;5074791;28;20044;-23
2022/09/23 03:26:18;;;;;;;23.95;19.15;;;7.70;99.90;;;;;;5072698;28;20221;-24
2022/09/23 03:28:45;;;;;;;24.40;19.13;;;7.70;99.90;;;;;;5073862;28;20083;-23
2022/09/23 03:31:13;;;;;;;30.70;21.58;;;7.60;99.90;;;;;;5073731;28;20113;-23
2022/09/23 03:33:44;;;;;;;24.10;19.48;;;7.70;99.90;;;;;;5074576;28;20367;-24
2022/09/23 03:39:21;;;;;;;28.83;21.17;;;7.60;99.90;;;;;;5074303;28;20149;-24
2022/09/23 03:41:51;;;;;;;27.40;20.48;;;7.60;99.90;;;;;;5073543;28;20037;-24
2022/09/23 03:44:18;;;;;;;25.08;20.50;;;7.60;99.90;;;;;;5073211;28;20386;-24
2022/09/23 03:46:48;;;;;;;26.00;19.50;;;7.60;99.90;;;;;;5073633;28;20414;-24
2022/09/23 03:49:23;;;;;;;27.88;20.92;;;7.50;99.90;;;;;;5073787;28;20099;-24
2022/09/23 03:51:49;;;;;;;21.48;18.58;;;7.60;99.90;;;;;;5072656;28;20052;-23
2022/09/23 03:54:18;;;;;;;26.63;19.17;;;7.50;99.90;;;;;;5073988;28;20053;-24
2022/09/23 03:56:44;;;;;;;29.58;20.77;;;7.50;99.90;;;;;;5074062;28;20044;-24
2022/09/23 03:59:10;;;;;;;25.65;19.65;;;7.60;99.90;;;;;;5073370;28;20397;-24
2022/09/23 04:01:35;;;;;;;26.35;19.33;;;7.60;99.90;;;;;;5073472;28;20173;-24
2022/09/23 04:04:01;;;;;;;27.38;21.73;;;7.50;99.90;;;;;;5073435;28;20048;-24
2022/09/23 04:06:26;;;;;;;23.92;19.42;;;7.60;99.90;;;;;;5072224;28;20128;-24
2022/09/23 04:08:52;;;;;;;26.23;21.08;;;7.50;99.90;;;;;;5072485;28;20041;-24
2022/09/23 04:11:18;;;;;;;24.35;20.88;;;7.50;99.90;;;;;;5073381;28;20055;-24
2022/09/23 04:13:43;;;;;;;27.33;21.40;;;7.40;99.90;;;;;;5073292;28;20523;-24
2022/09/23 04:16:09;;;;;;;25.48;21.35;;;7.40;99.90;;;;;;5072198;28;20084;-24
2022/09/23 04:18:35;;;;;;;23.65;19.40;;;7.50;99.90;;;;;;5073328;28;20505;-24
2022/09/23 04:21:01;;;;;;;25.98;20.85;;;7.50;99.90;;;;;;5072975;28;20121;-23
2022/09/23 04:23:27;;;;;;;25.80;21.27;;;7.40;99.90;;;;;;5073239;28;20095;-24
2022/09/23 04:25:53;;;;;;;27.00;21.00;;;7.40;99.90;;;;;;5072077;28;20074;-24
2022/09/23 04:28:20;;;;;;;28.30;20.23;;;7.40;99.90;;;;;;5073085;28;20115;-24
2022/09/23 04:30:47;;;;;;;27.17;22.30;;;7.40;99.90;;;;;;5071994;28;20041;-24
2022/09/23 04:33:14;;;;;;;25.05;20.25;;;7.30;99.90;;;;;;5054990;28;20196;-24
2022/09/23 04:35:42;;;;;;;28.48;21.83;;;7.40;99.90;;;;;;5072178;28;20064;-23
2022/09/23 04:38:10;;;;;;;26.55;21.20;;;7.40;99.90;;;;;;5072822;28;20496;-23
2022/09/23 04:40:35;;;;;;;25.48;21.35;;;7.40;99.90;;;;;;5038517;28;20052;-23
2022/09/23 04:43:02;;;;;;;33.00;23.35;;;7.30;99.90;;;;;;5072101;28;20127;-24
2022/09/23 04:45:29;;;;;;;27.50;20.77;;;7.40;99.90;;;;;;5073075;28;20080;-23
2022/09/23 04:47:57;;;;;;;29.25;21.65;;;7.30;99.90;;;;;;5073020;28;20059;-24
2022/09/23 04:50:26;;;;;;;27.05;21.73;;;7.40;99.90;;;;;;5072979;28;20052;-24
2022/09/23 04:52:52;;;;;;;25.27;20.40;;;7.40;99.90;;;;;;5056884;28;20048;-24
2022/09/23 04:55:18;;;;;;;22.70;19.70;;;7.30;99.90;;;;;;5076610;28;20036;-24
2022/09/23 04:57:44;;;;;;;25.70;21.02;;;7.40;99.90;;;;;;5076562;28;20397;-24
2022/09/23 05:00:14;;;;;;;25.67;20.98;;;7.40;99.90;;;;;;5076529;28;20100;-23
2022/09/23 05:02:44;;;;;;;28.30;21.77;;;7.40;99.90;;;;;;5059785;28;20040;-23
2022/09/23 05:05:11;;;;;;;24.98;21.65;;;7.40;99.90;;;;;;5077015;28;20197;-23
2022/09/23 05:07:37;;;;;;;26.55;19.30;;;7.40;99.90;;;;;;5059027;28;20060;-24
2022/09/23 05:10:03;;;;;;;29.33;21.58;;;7.50;99.90;;;;;;5076330;28;20048;-24
2022/09/23 05:12:29;;;;;;;36.65;21.00;;;7.40;99.90;;;;;;5076355;28;20048;-24
2022/09/23 05:14:55;;;;;;;26.95;21.23;;;7.50;99.90;;;;;;5076176;28;20135;-24
2022/09/23 05:17:21;;;;;;;23.48;20.38;;;7.60;99.90;;;;;;5076224;28;20048;-23
2022/09/23 05:19:46;;;;;;;22.95;19.50;;;7.60;99.90;;;;;;5076207;28;20048;-24
2022/09/23 05:22:12;;;;;;;23.77;20.50;;;7.80;99.90;;;;;;5074969;28;20040;-24
2022/09/23 05:24:38;;;;;;;25.40;20.33;;;7.50;99.90;;;;;;5076067;28;20090;-24
2022/09/23 05:27:06;;;;;;;24.80;20.85;;;7.70;99.90;;;;;;5076015;28;20073;-24
2022/09/23 05:29:32;;;;;;;23.52;19.80;;;7.60;99.90;;;;;;5075042;28;20127;-24
2022/09/23 05:31:58;;;;;;;22.90;19.38;;;7.70;99.90;;;;;;5075670;28;20056;-24
2022/09/23 05:34:24;;;;;;;22.40;19.98;;;7.70;99.90;;;;;;5075897;28;20051;-23
2022/09/23 05:36:50;;;;;;;25.98;20.65;;;8.00;99.90;;;;;;5076406;28;20041;-23
2022/09/23 05:39:15;;;;;;;21.92;19.58;;;8.00;99.90;;;;;;5076410;28;20479;-24
2022/09/23 05:41:42;;;;;;;24.25;19.23;;;8.00;99.90;;;;;;5075816;28;20048;-23
2022/09/23 05:44:08;;;;;;;25.20;19.30;;;8.20;99.90;;;;;;5075796;28;20114;-24
2022/09/23 05:46:34;;;;;;;23.65;19.17;;;8.00;99.90;;;;;;5075690;28;20479;-24
2022/09/23 05:49:00;;;;;;;23.75;19.80;;;8.10;99.90;;;;;;5075938;28;20124;-23
2022/09/23 05:51:26;;;;;;;24.92;18.63;;;8.10;99.90;;;;;;5041930;28;20063;-24
2022/09/23 05:53:54;;;;;;;22.23;19.33;;;8.00;99.90;;;;;;5075132;28;20036;-24
2022/09/23 05:56:23;;;;;;;21.88;18.67;;;8.30;99.90;;;;;;5074796;28;20053;-24
2022/09/23 05:58:53;;;;;;;20.52;18.08;;;8.10;99.90;;;;;;5074452;28;20051;-24
2022/09/23 06:01:21;;;;;;;20.95;17.60;;;8.20;99.90;;;;;;5075404;28;20109;-24
2022/09/23 06:03:48;;;;;;;23.38;19.10;;;8.30;99.90;;;;;;5074921;28;20068;-24
2022/09/23 06:06:14;;;;;;;21.13;18.75;;;8.30;99.90;;;;;;5075272;28;20049;-24
2022/09/23 06:08:41;;;;;;;22.15;18.13;;;8.30;99.90;;;;;;5057602;28;20474;-24
2022/09/23 06:11:07;;;;;;;21.88;17.23;;;8.30;99.90;;;;;;5073988;28;20049;-24
2022/09/23 06:13:37;;;;;;;21.20;17.60;;;8.50;99.90;;;;;;5075885;28;20128;-24
2022/09/23 06:16:06;;;;;;;21.65;18.83;;;8.60;99.90;;;;;;5074430;28;20044;-24
2022/09/23 06:18:33;;;;;;;25.67;18.48;;;8.60;99.90;;;;;;5075333;28;20087;-24
2022/09/23 06:21:02;;;;;;;23.50;19.15;;;8.60;99.90;;;;;;5074981;28;20048;-24
2022/09/23 06:23:28;;;;;;;19.17;17.02;;;8.70;99.90;;;;;;5073986;28;20114;-24
2022/09/23 06:26:00;;;;;;;24.80;18.75;;;8.70;99.90;;;;;;5073879;28;20479;-24
2022/09/23 06:28:30;;;;;;;22.65;17.88;;;8.70;99.90;;;;;;5074709;28;20440;-24
2022/09/23 06:31:01;;;;;;;21.00;17.63;;;8.90;99.90;;;;;;5074764;28;20052;-24
2022/09/23 06:33:28;;;;;;;19.60;17.52;;;8.90;99.90;;;;;;5057371;28;20068;-24
2022/09/23 06:35:58;;;;;;;21.00;17.67;;;9.00;99.90;;;;;;5074342;28;20503;-24
2022/09/23 06:38:25;;;;;;;18.73;16.63;;;9.10;99.90;;;;;;5075459;28;20052;-24
2022/09/23 06:40:53;;;;;;;20.17;16.73;;;9.20;99.90;;;;;;5074168;28;20485;-24
2022/09/23 06:43:20;;;;;;;19.00;16.98;;;9.40;99.90;;;;;;5075079;28;20437;-24
2022/09/23 06:45:46;;;;;;;22.50;17.42;;;9.30;99.90;;;;;;5074494;28;20509;-24
2022/09/23 06:48:12;;;;;;;17.38;15.57;;;9.60;99.90;;;;;;5075071;28;20052;-24
2022/09/23 06:50:38;;;;;;;20.00;17.30;;;9.60;99.90;;;;;;5074583;28;20443;-24
2022/09/23 06:53:03;;;;;;;18.25;16.35;;;9.70;99.90;;;;;;5074839;28;20397;-24
2022/09/23 06:55:29;;;;;;;21.45;17.05;;;9.80;99.90;;;;;;5074333;28;20046;-24
2022/09/23 06:57:58;;;;;;;18.33;16.10;;;9.90;99.90;;;;;;5074320;28;20096;-24
2022/09/23 07:00:25;;;;;;;19.33;16.35;;;9.90;90.80;;;;;;5074242;28;20040;-24
2022/09/23 07:02:51;;;;;;;19.35;16.17;;;9.90;42.80;;;;;;5074198;28;20049;-24
2022/09/23 07:05:17;;;;;;;17.70;14.93;;;10.00;1.00;;;;;;5074987;28;20131;-24
2022/09/23 07:07:43;;;;;;;18.38;16.10;;;10.10;1.00;;;;;;5074679;28;20048;-24
2022/09/23 07:10:10;;;;;;;18.52;15.55;;;10.10;1.00;;;;;;5074111;28;20399;-24
2022/09/23 07:12:36;;;;;;;18.00;15.30;;;10.10;1.00;;;;;;5073092;28;20052;-24
2022/09/23 07:15:02;;;;;;;18.75;15.90;;;10.10;1.00;;;;;;5073263;28;20470;-24
2022/09/23 07:17:28;;;;;;;18.23;16.33;;;10.20;1.00;;;;;;5073315;28;20390;-24
2022/09/23 07:19:54;;;;;;;18.30;16.08;;;10.20;1.00;;;;;;5073674;28;20510;-24
2022/09/23 07:22:20;;;;;;;17.85;16.08;;;10.30;1.00;;;;;;5073932;28;20044;-24
2022/09/23 07:24:46;;;;;;;20.00;15.13;;;10.30;1.00;;;;;;5073867;28;20048;-24
2022/09/23 07:27:15;;;;;;;16.55;14.20;;;10.40;1.00;;;;;;5056083;28;20071;-24
2022/09/23 07:29:42;;;;;;;19.42;14.60;;;10.50;1.00;;;;;;5073855;28;20080;-24
2022/09/23 07:32:08;;;;;;;26.33;15.75;;;10.60;99.90;;;;;;5074098;28;20489;-24
2022/09/23 07:34:35;;;;;;;16.13;13.63;;;10.80;99.90;;;;;;5074268;28;20078;-24
2022/09/23 07:37:01;;;;;;;17.05;14.82;;;11.00;99.90;;;;;;5072997;28;20061;-24
2022/09/23 07:39:27;;;;;;;15.63;13.80;;;11.10;99.90;;;;;;5072531;28;20052;-25
2022/09/23 07:41:53;;;;;;;16.45;12.85;;;11.30;99.90;;;;;;5074215;28;20056;-24
2022/09/23 07:44:20;;;;;;;13.93;12.07;;;11.40;99.90;;;;;;5073636;28;20394;-25
2022/09/23 07:46:48;;;;;;;14.40;12.90;;;11.50;43.40;;;;;;5072391;28;20106;-24
2022/09/23 07:49:14;;;;;;;14.93;13.32;;;11.60;1.00;;;;;;5074086;28;20048;-24
2022/09/23 07:51:45;;;;;;;16.13;13.50;;;11.60;1.00;;;;;;5073634;28;20040;-24
2022/09/23 07:54:13;;;;;;;17.23;13.70;;;11.70;1.00;;;;;;5073311;28;20048;-24
2022/09/23 07:56:40;;;;;;;15.25;13.65;;;11.80;99.90;;;;;;5073540;28;20044;-24
2022/09/23 07:59:08;;;;;;;18.15;13.73;;;11.80;99.90;;;;;;5072574;28;20247;-24
2022/09/23 08:01:47;;;;;;;16.70;13.63;;;11.80;99.90;;;;;;5074060;28;20044;-24
2022/09/23 08:04:28;;;;;;;19.33;12.23;;;11.90;99.90;;;;;;5073772;28;20044;-25
2022/09/23 08:06:59;;;;;;;14.60;13.07;;;12.00;99.90;;;;;;5072197;28;20048;-25
2022/09/23 08:09:33;;;;;;;17.05;13.13;;;11.90;99.90;;;;;;5072255;28;20056;-24
2022/09/23 08:11:59;;;;;;;14.82;12.82;;;12.00;99.90;;;;;;5073286;28;20045;-24
2022/09/23 08:14:25;;;;;;;15.68;12.88;;;12.00;99.90;;;;;;5073296;28;20044;-25
2022/09/23 08:16:52;;;;;;;15.07;12.05;;;12.10;99.90;;;;;;5073048;28;20056;-25
2022/09/23 08:19:18;;;;;;;15.35;13.25;;;12.20;99.90;;;;;;5073295;28;20049;-25
2022/09/23 08:21:46;;;;;;;14.77;12.20;;;12.30;99.90;;;;;;5073287;28;20105;-25
2022/09/23 08:24:22;;;;;;;15.32;11.38;;;12.50;99.90;;;;;;5056090;28;20048;-25
2022/09/23 08:26:52;;;;;;;13.65;12.20;;;12.70;99.90;;;;;;5073697;28;20052;-25
2022/09/23 08:29:19;;;;;;;13.30;11.10;;;12.90;99.90;;;;;;5077143;28;20048;-25
2022/09/23 08:31:45;;;;;;;20.63;11.63;;;13.20;99.90;;;;;;5076816;28;20493;-25
2022/09/23 08:34:12;;;;;;;13.63;10.75;;;13.40;99.90;;;;;;5076679;28;20549;-24
2022/09/23 08:36:38;;;;;;;11.25;10.05;;;13.50;43.60;;;;;;5076017;28;20048;-25
2022/09/23 08:39:05;;;;;;;13.25;10.57;;;13.70;1.00;;;;;;5076911;28;20131;-25
2022/09/23 08:41:59;;;;;;;10.68;9.57;;;13.80;99.90;;;;;;5076234;28;20044;-25
2022/09/23 08:44:45;;;;;;;12.40;9.68;;;13.90;99.90;;;;;;5076809;28;20479;-25
2022/09/23 08:47:11;;;;;;;11.13;10.00;;;14.10;1.00;;;;;;5076387;28;20462;-25
2022/09/23 08:49:50;;;;;;;11.68;9.73;;;14.10;29.50;;;;;;5076697;28;20059;-25
2022/09/23 08:52:42;;;;;;;10.80;9.70;;;14.30;1.00;;;;;;5077322;28;20052;-24
2022/09/23 08:55:12;;;;;;;16.13;8.95;;;14.30;1.00;;;;;;5074130;28;20464;-25
2022/09/23 08:57:56;;;;;;;12.55;9.57;;;14.30;1.00;;;;;;5076554;28;20052;-25
2022/09/23 09:00:32;;;;;;;10.52;9.05;;;14.30;99.90;;;;;;5076519;28;20049;-25
2022/09/23 09:02:57;;;;;;;11.48;9.05;;;14.40;1.00;;;;;;5077021;28;20084;-25
2022/09/23 09:05:26;;;;;;;12.13;8.30;;;14.50;1.00;;;;;;5076714;28;20080;-25
2022/09/23 09:07:56;;;;;;;13.60;9.30;;;14.60;99.90;;;;;;5058527;28;20048;-25
2022/09/23 09:10:25;;;;;;;14.43;8.85;;;14.70;99.90;;;;;;5076377;28;20044;-26
2022/09/23 09:13:09;;;;;;;12.88;9.43;;;14.90;99.90;;;;;;5076307;28;20056;-26
2022/09/23 09:15:43;;;;;;;10.02;8.13;;;14.90;99.90;;;;;;5075875;28;20117;-26
2022/09/23 09:18:20;;;;;;;13.73;8.80;;;15.00;99.90;;;;;;5076151;28;20122;-25
2022/09/23 09:21:11;;;;;;;10.18;8.85;;;15.10;99.90;;;;;;5076829;28;20063;-25
2022/09/23 09:23:53;;;;;;;9.80;7.88;;;15.20;99.90;;;;;;5076143;28;20048;-26
2022/09/23 09:26:22;;;;;;;10.38;8.63;;;15.40;1.00;;;;;;5076416;28;20048;-26
2022/09/23 09:28:59;;;;;;;10.07;8.20;;;15.70;99.90;;;;;;5076855;28;20386;-26
2022/09/23 09:31:45;;;;;;;9.13;7.68;;;15.80;1.00;;;;;;5074942;28;20178;-26
2022/09/23 09:34:15;;;;;;;9.70;7.70;;;15.80;1.00;;;;;;5058451;28;20483;-26
2022/09/23 09:36:53;;;;;;;11.40;8.10;;;15.90;1.00;;;;;;5075947;28;20102;-26
2022/09/23 09:39:18;;;;;;;11.13;7.90;;;16.00;1.00;;;;;;5075216;28;20052;-26
2022/09/23 09:41:48;;;;;;;13.13;7.80;;;15.90;1.00;;;;;;5076373;28;20041;-25
2022/09/23 09:44:40;;;;;;;10.43;7.68;;;15.70;99.90;;;;;;5076574;28;20040;-26
2022/09/23 09:47:27;;;;;;;10.45;8.10;;;15.70;99.90;;;;;;5076480;28;20052;-25
2022/09/23 09:50:20;;;;;;;12.27;7.40;;;15.50;99.90;;;;;;5074853;28;20044;-25
2022/09/23 09:52:55;;;;;;;10.13;7.78;;;15.30;1.00;;;;;;5053541;28;20065;-25
2022/09/23 09:55:27;;;;;;;12.77;7.75;;;15.40;99.90;;;;;;5075836;28;20048;-25
2022/09/23 09:58:04;;;;;;;12.90;8.95;;;15.20;99.90;;;;;;5074546;28;20109;-25
2022/09/23 10:00:29;;;;;;;11.80;8.90;;;15.10;99.90;;;;;;5074312;28;20049;-25
2022/09/23 10:02:59;;;;;;;13.25;9.25;;;15.00;99.90;;;;;;5075360;28;20053;-25
2022/09/23 10:05:30;;;;;;;15.95;9.05;;;15.00;1.00;;;;;;5058045;28;20049;-25
2022/09/23 10:08:14;;;;;;;10.93;8.52;;;15.00;1.00;;;;;;5075194;28;20426;-25
2022/09/23 10:10:58;;;;;;;11.15;8.70;;;15.00;1.00;;;;;;5075560;28;20066;-26
2022/09/23 10:13:25;;;;;;;12.80;9.20;;;15.00;1.00;;;;;;5074174;28;20095;-26
2022/09/23 10:15:53;;;;;;;14.43;9.07;;;15.10;1.00;;;;;;5075955;28;20049;-25
2022/09/23 10:18:39;;;;;;;14.25;9.30;;;15.20;12.50;;;;;;5075024;28;20052;-25
2022/09/23 10:21:14;;;;;;;12.80;8.20;;;15.30;1.00;;;;;;5075581;28;20044;-25
2022/09/23 10:23:50;;;;;;;11.35;8.10;;;15.40;1.00;;;;;;5074677;28;20544;-25
2022/09/23 10:26:17;;;;;;;10.27;9.02;;;15.40;1.00;;;;;;5074257;28;20368;-25
2022/09/23 10:28:54;;;;;;;11.23;8.68;;;15.40;1.00;;;;;;5074841;28;20087;-25
2022/09/23 10:31:24;;;;;;;10.88;9.32;;;15.50;1.00;;;;;;5074838;28;20082;-25
2022/09/23 10:34:01;;;;;;;14.43;9.40;;;15.60;1.00;;;;;;5073189;28;20096;-25
2022/09/23 10:36:29;;;;;;;14.70;8.63;;;15.70;1.00;;;;;;5073511;28;20059;-25
2022/09/23 10:48:10;;;;;;;15.55;9.15;;;16.00;1.00;;;;;;5073556;28;20066;-25
2022/09/23 10:50:47;;;;;;;10.68;8.50;;;16.00;1.00;;;;;;5072771;28;20048;-25
2022/09/23 10:53:48;;;;;;;16.65;9.75;;;16.10;1.00;;;;;;5073204;28;20502;-25
2022/09/23 10:56:35;;;;;;;11.48;9.00;;;16.20;99.90;;;;;;5073263;28;20051;-25
2022/09/23 10:59:08;;;;;;;13.82;9.20;;;16.10;99.90;;;;;;5074508;28;20421;-25
2022/09/23 11:02:09;;;;;;;12.80;9.15;;;16.00;1.00;;;;;;5075404;28;20044;-25
2022/09/23 11:04:55;;;;;;;15.07;9.90;;;16.00;1.00;;;;;;5073791;28;20045;-25
2022/09/23 11:07:37;;;;;;;11.68;9.45;;;16.10;1.00;;;;;;5073510;28;20045;-25
2022/09/23 11:10:42;;;;;;;13.30;10.23;;;16.10;99.90;;;;;;5074151;28;20041;-25
2022/09/23 11:13:23;;;;;;;17.45;10.85;;;16.10;1.00;;;;;;5074014;28;20052;-25
2022/09/23 11:16:21;;;;;;;15.20;10.65;;;16.00;1.00;;;;;;5056693;28;20113;-25
2022/09/23 11:19:20;;;;;;;13.88;9.00;;;16.10;1.00;;;;;;5073062;28;20101;-25
2022/09/23 11:22:14;;;;;;;13.95;9.55;;;16.00;1.00;;;;;;5072629;28;20045;-25
2022/09/23 11:24:50;;;;;;;11.93;10.48;;;16.10;1.00;;;;;;5074538;28;20076;-25
2022/09/23 11:27:37;;;;;;;14.50;10.73;;;16.00;65.30;;;;;;5073752;28;20094;-25
2022/09/23 11:30:25;;;;;;;16.50;10.68;;;16.00;95.20;;;;;;5074123;28;20049;-25
2022/09/23 11:33:12;;;;;;;12.63;11.00;;;16.10;84.70;;;;;;5073795;28;20052;-25
2022/09/23 11:35:46;;;;;;;15.63;10.65;;;16.10;99.90;;;;;;5073653;28;20052;-25
2022/09/23 11:38:38;;;;;;;14.52;10.88;;;16.10;99.90;;;;;;5072628;28;20052;-25
2022/09/23 11:41:39;;;;;;;11.73;9.45;;;16.20;94.70;;;;;;5056388;28;20044;-25
2022/09/23 11:44:40;;;;;;;12.20;10.50;;;16.20;99.90;;;;;;5073725;28;20037;-25
2022/09/23 11:47:33;;;;;;;13.93;10.75;;;16.20;99.90;;;;;;5074257;28;20195;-25
2022/09/23 11:50:14;;;;;;;12.55;9.55;;;16.30;99.90;;;;;;5072211;28;20048;-25
2022/09/23 11:52:44;;;;;;;17.13;11.27;;;16.30;99.90;;;;;;5073644;28;20087;-25
2022/09/23 11:55:21;;;;;;;15.02;11.52;;;16.40;99.90;;;;;;5072055;28;20045;-26
2022/09/23 11:58:00;;;;;;;15.13;11.32;;;16.50;99.90;;;;;;5073261;28;20387;-25
2022/09/23 12:00:34;;;;;;;12.00;10.15;;;16.50;99.90;;;;;;5073275;28;20455;-25
2022/09/23 12:03:22;;;;;;;14.70;10.50;;;16.40;99.90;;;;;;5077803;28;20048;-25
2022/09/23 12:06:12;;;;;;;14.82;11.15;;;16.50;99.90;;;;;;5076711;28;20049;-25
2022/09/23 12:08:38;;;;;;;15.32;11.75;;;16.40;99.90;;;;;;5077537;28;20056;-25
2022/09/23 12:11:10;;;;;;;17.65;11.90;;;16.40;1.00;;;;;;5077582;28;20046;-25
2022/09/23 12:14:02;;;;;;;15.95;11.98;;;16.30;1.00;;;;;;5077431;28;20041;-25
2022/09/23 12:17:09;;;;;;;15.00;13.30;;;16.30;1.00;;;;;;5061478;28;20146;-26
2022/09/23 12:19:44;;;;;;;16.20;11.75;;;16.30;1.00;;;;;;5023958;28;20087;-26
2022/09/23 12:22:09;;;;;;;13.98;11.40;;;16.40;1.00;;;;;;5077420;28;20135;-25
2022/09/23 12:25:19;;;;;;;14.73;12.05;;;16.30;82.60;;;;;;5077187;28;20127;-25
2022/09/23 12:27:48;;;;;;;13.32;11.18;;;16.30;5.50;;;;;;5057688;28;20052;-25
2022/09/23 12:30:18;;;;;;;14.18;12.63;;;16.30;98.90;;;;;;5077821;28;20427;-26
2022/09/23 12:32:45;;;;;;;14.32;12.15;;;16.30;99.90;;;;;;5076160;28;20063;-26
2022/09/23 12:35:24;;;;;;;16.23;14.13;;;16.30;99.90;;;;;;5075804;28;20082;-26
2022/09/23 12:37:51;;;;;;;16.02;11.75;;;16.30;20.70;;;;;;5077553;28;20052;-26
2022/09/23 12:40:34;;;;;;;16.40;12.30;;;16.30;99.90;;;;;;5060111;28;20052;-26
2022/09/23 12:43:01;;;;;;;15.93;12.38;;;16.20;25.10;;;;;;5059302;28;20502;-25
2022/09/23 12:45:31;;;;;;;14.32;12.63;;;16.20;99.90;;;;;;5076924;28;20040;-25
2022/09/23 12:48:03;;;;;;;15.10;10.88;;;16.10;99.90;;;;;;5077452;28;20049;-25
2022/09/23 12:50:51;;;;;;;17.67;13.45;;;16.10;99.90;;;;;;5076854;28;20048;-25
2022/09/23 12:53:32;;;;;;;16.63;12.23;;;16.10;99.90;;;;;;5076615;28;20055;-25
2022/09/23 12:56:01;;;;;;;12.77;11.48;;;16.10;99.90;;;;;;5075740;28;20052;-25
2022/09/23 12:58:42;;;;;;;13.95;12.50;;;16.20;99.90;;;;;;5076578;28;20132;-25
2022/09/23 13:01:19;;;;;;;15.20;11.57;;;16.20;99.90;;;;;;5076581;28;20049;-25
2022/09/23 13:07:20;;;;;;;15.25;12.43;;;16.10;99.90;;;;;;5077342;28;20060;-25
2022/09/23 13:09:49;;;;;;;17.75;13.73;;;16.00;99.90;;;;;;5018695;28;20060;-25
2022/09/23 13:12:24;;;;;;;14.80;13.13;;;15.90;99.90;;;;;;5065796;28;20076;-25
2022/09/23 13:14:53;;;;;;;16.88;13.48;;;15.80;99.90;;;;;;5075993;28;20044;-25
2022/09/23 13:17:28;;;;;;;20.50;14.93;;;15.70;1.00;;;;;;5075119;28;20041;-25
2022/09/23 13:20:16;;;;;;;18.15;13.85;;;15.70;1.00;;;;;;5077138;28;20051;-25